Time;durP1;ratioP1;P1;durP2;ratioP2;P2;SDS_P1;SDS_P2;PMS_P1;PMS_P2;Temp;Humidity;BMP_temperature;BMP_pressure;BME280_temperature;BME280_humidity;BME280_pressure;Samples;Min_cycle;Max_cycle;Signal;HPM_P1;HPM_P2
2021/12/19 00:02:09;;;;;;;19.08;2.83;;;;;;;5.82;100.00;101867.28;4808130;29;20434;-76
2021/12/19 00:09:43;;;;;;;14.52;1.90;;;;;;;5.86;98.93;101859.81;4822524;29;20054;-76
2021/12/19 00:12:09;;;;;;;11.93;2.22;;;;;;;5.84;98.64;101854.66;4808632;29;20042;-76
2021/12/19 00:14:35;;;;;;;8.77;1.50;;;;;;;5.97;97.95;101861.56;4822782;29;20637;-77
2021/12/19 00:17:00;;;;;;;9.25;1.30;;;;;;;5.96;97.37;101846.50;4823216;29;20033;-76
2021/12/19 00:19:26;;;;;;;10.00;2.15;;;;;;;6.16;96.45;101848.16;4806922;29;20129;-77
2021/12/19 00:21:51;;;;;;;7.80;1.38;;;;;;;6.31;95.94;101843.19;4822473;29;20034;-77
2021/12/19 00:24:17;;;;;;;10.90;1.83;;;;;;;6.37;95.31;101842.59;4807691;29;20038;-76
2021/12/19 00:26:43;;;;;;;11.63;1.80;;;;;;;6.22;95.64;101809.31;4824103;29;20030;-77
2021/12/19 00:29:08;;;;;;;15.95;2.53;;;;;;;6.22;96.14;101834.19;4822021;29;20050;-77
2021/12/19 00:31:34;;;;;;;13.70;1.83;;;;;;;6.15;96.59;101830.44;4808203;29;20038;-77
2021/12/19 00:34:00;;;;;;;15.20;2.13;;;;;;;5.96;97.23;101809.97;4821945;29;20034;-77
2021/12/19 00:36:26;;;;;;;18.10;2.45;;;;;;;6.06;97.63;101834.81;4824857;29;20030;-76
2021/12/19 00:38:52;;;;;;;18.33;2.33;;;;;;;5.84;97.41;101787.03;4823687;29;20037;-77
2021/12/19 00:41:18;;;;;;;14.07;1.95;;;;;;;6.05;98.05;101817.09;4800949;29;20022;-76
2021/12/19 00:46:14;;;;;;;9.85;1.95;;;;;;;6.18;97.33;101808.75;4823190;29;20341;-76
2021/12/19 00:48:44;;;;;;;15.45;1.92;;;;;;;6.02;96.92;101760.44;4807867;29;20030;-77
2021/12/19 00:51:14;;;;;;;13.98;2.05;;;;;;;6.23;96.63;101806.50;4807763;29;20048;-76
2021/12/19 00:53:40;;;;;;;11.50;1.85;;;;;;;6.15;97.01;101790.34;4826997;29;20030;-77
2021/12/19 00:56:06;;;;;;;13.77;1.98;;;;;;;6.26;97.10;101808.06;4811243;29;20091;-77
2021/12/19 00:58:31;;;;;;;15.00;2.00;;;;;;;6.26;97.33;101810.72;4829879;29;20462;-77
2021/12/19 01:00:57;;;;;;;11.90;2.15;;;;;;;6.23;96.97;101821.69;4821687;29;20118;-77
2021/12/19 01:03:23;;;;;;;15.95;2.03;;;;;;;6.07;97.84;101795.59;4815386;29;20058;-77
2021/12/19 01:05:49;;;;;;;14.93;1.80;;;;;;;6.10;98.12;101809.50;4816575;29;20034;-77
2021/12/19 01:08:14;;;;;;;13.57;1.80;;;;;;;6.18;97.86;101821.28;4827152;29;20106;-77
2021/12/19 01:10:46;;;;;;;13.80;2.00;;;;;;;6.00;98.29;101794.47;4814042;29;20050;-77
2021/12/19 01:13:13;;;;;;;11.38;2.00;;;;;;;6.00;98.34;101807.84;4811541;29;20030;-77
2021/12/19 01:15:39;;;;;;;18.42;2.08;;;;;;;6.05;98.67;101824.25;4824646;29;20046;-77
2021/12/19 01:18:04;;;;;;;15.98;2.25;;;;;;;5.92;98.83;101802.31;4812441;29;20038;-77
2021/12/19 01:20:33;;;;;;;15.00;2.13;;;;;;;5.89;98.93;101803.44;4827098;29;20118;-77
2021/12/19 01:22:59;;;;;;;13.95;2.03;;;;;;;5.93;99.27;101817.41;4810701;29;20022;-77
2021/12/19 01:25:24;;;;;;;18.73;2.67;;;;;;;5.79;99.40;101791.94;4810444;29;20169;-76
2021/12/19 01:27:50;;;;;;;19.77;2.30;;;;;;;5.70;99.71;101790.16;4824703;29;20125;-77
2021/12/19 01:30:17;;;;;;;16.90;2.35;;;;;;;5.87;100.00;101803.59;4811268;29;20458;-77
2021/12/19 01:32:43;;;;;;;18.95;2.17;;;;;;;5.81;100.00;101779.31;4824962;29;20038;-77
2021/12/19 01:35:11;;;;;;;22.15;2.40;;;;;;;5.76;100.00;101787.75;4824648;29;20046;-77
2021/12/19 01:37:36;;;;;;;20.52;2.25;;;;;;;5.80;100.00;101801.66;4825562;29;20358;-77
2021/12/19 01:40:06;;;;;;;17.83;2.17;;;;;;;5.84;100.00;101800.38;4820958;29;20450;-77
2021/12/19 01:42:39;;;;;;;17.27;2.13;;;;;;;5.81;100.00;101790.00;4826480;29;20386;-77
2021/12/19 01:45:07;;;;;;;15.82;2.38;;;;;;;5.80;100.00;101789.16;4824237;29;20042;-76
2021/12/19 01:47:33;;;;;;;22.15;2.38;;;;;;;5.83;100.00;101796.03;4825811;29;20027;-77
2021/12/19 01:49:58;;;;;;;17.70;2.58;;;;;;;5.89;100.00;101796.31;4825012;29;20034;-77
2021/12/19 01:52:24;;;;;;;22.92;2.10;;;;;;;5.99;100.00;101798.97;4825566;29;20760;-77
2021/12/19 01:54:51;;;;;;;15.60;2.45;;;;;;;6.01;100.00;101788.16;4808563;29;20049;-77
2021/12/19 01:57:18;;;;;;;21.02;2.63;;;;;;;6.03;100.00;101778.16;4826442;29;20041;-77
2021/12/19 01:59:43;;;;;;;20.35;2.42;;;;;;;5.95;100.00;101759.34;4824819;29;20019;-77
2021/12/19 02:02:09;;;;;;;13.98;2.33;;;;;;;6.16;100.00;101772.47;4808286;29;20141;-77
2021/12/19 02:04:34;;;;;;;18.05;2.05;;;;;;;6.18;99.61;101762.50;4824739;29;20059;-77
2021/12/19 02:07:01;;;;;;;12.75;2.13;;;;;;;6.27;99.08;101767.78;4809264;29;20038;-77
2021/12/19 02:09:26;;;;;;;18.83;2.83;;;;;;;6.26;98.58;101767.97;4824049;29;20049;-77
2021/12/19 02:11:52;;;;;;;11.10;2.13;;;;;;;6.21;98.01;101760.34;4826276;29;20030;-77
2021/12/19 02:14:18;;;;;;;12.35;1.60;;;;;;;6.29;98.31;101759.63;4826047;29;20038;-76
2021/12/19 02:16:44;;;;;;;13.50;2.50;;;;;;;6.25;97.76;101750.22;4826257;29;20034;-77
2021/12/19 02:19:10;;;;;;;14.70;2.40;;;;;;;6.25;97.63;101750.22;4824637;29;20389;-77
2021/12/19 02:21:37;;;;;;;18.35;2.35;;;;;;;6.27;98.15;101750.91;4825371;29;20049;-77
2021/12/19 02:24:06;;;;;;;14.52;1.73;;;;;;;6.30;97.93;101747.97;4812607;29;20113;-77
2021/12/19 02:26:32;;;;;;;15.15;2.60;;;;;;;6.11;97.91;101716.81;4825578;29;20362;-77
2021/12/19 02:28:58;;;;;;;19.10;2.50;;;;;;;6.29;97.50;101738.22;4821001;29;20026;-77
2021/12/19 02:31:23;;;;;;;22.38;2.40;;;;;;;6.32;97.46;101748.63;4825573;29;20055;-77
2021/12/19 02:34:03;;;;;;;19.88;2.13;;;;;;;6.25;97.24;101745.72;4792254;29;20039;-77
2021/12/19 02:39:36;;;;;;;17.30;2.60;;;;;;;6.28;97.31;101739.22;4825420;29;20106;-77
2021/12/19 02:50:16;;;;;;;17.83;2.17;;;;;;;6.15;97.43;101718.19;4818428;29;20121;-77
2021/12/19 02:52:42;;;;;;;20.63;2.90;;;;;;;6.28;97.53;101739.22;4825222;29;20038;-77
2021/12/19 02:55:08;;;;;;;20.67;2.63;;;;;;;6.15;97.88;101720.84;4807558;29;20061;-77
2021/12/19 02:57:34;;;;;;;21.30;2.67;;;;;;;6.19;97.86;101740.09;4808063;29;20039;-77
2021/12/19 03:00:00;;;;;;;16.60;2.42;;;;;;;6.12;98.16;101729.16;4809019;29;20022;-77
2021/12/19 03:02:25;;;;;;;18.20;2.22;;;;;;;5.95;98.24;101714.75;4797351;29;20068;-77
2021/12/19 03:04:56;;;;;;;19.23;2.47;;;;;;;6.07;98.52;101731.47;4824034;29;20094;-77
2021/12/19 03:07:22;;;;;;;16.98;2.25;;;;;;;6.00;98.81;101730.38;4808466;29;20114;-77
2021/12/19 03:20:21;;;;;;;21.30;2.78;;;;;;;5.76;99.75;101693.41;4824698;29;20091;-77
2021/12/19 03:22:46;;;;;;;22.88;2.60;;;;;;;5.95;99.55;101721.94;4823503;29;20046;-77
2021/12/19 03:25:11;;;;;;;17.08;2.63;;;;;;;5.95;99.26;101714.75;4825125;29;20049;-76
2021/12/19 03:27:37;;;;;;;29.90;3.28;;;;;;;5.99;99.38;101710.78;4823771;29;20087;-77
2021/12/19 03:30:06;;;;;;;19.77;3.05;;;;;;;5.98;99.19;101706.44;4820746;29;20478;-77
2021/12/19 03:32:32;;;;;;;19.73;2.97;;;;;;;5.75;99.65;101655.19;4824918;29;20034;-76
2021/12/19 03:34:57;;;;;;;22.48;2.80;;;;;;;6.14;98.46;101696.97;4809740;29;20042;-77
2021/12/19 03:37:23;;;;;;;20.13;2.40;;;;;;;6.17;98.03;101691.34;4823844;29;20079;-77
2021/12/19 03:40:09;;;;;;;19.20;2.90;;;;;;;6.29;97.20;101690.13;4820973;29;20038;-77
2021/12/19 03:42:41;;;;;;;16.73;3.05;;;;;;;6.39;96.40;101688.25;4824265;29;20058;-76
2021/12/19 03:45:08;;;;;;;15.73;2.40;;;;;;;6.46;95.53;101694.69;4824458;29;20105;-77
2021/12/19 03:47:35;;;;;;;21.75;2.92;;;;;;;6.44;95.12;101688.63;4809167;29;20049;-77
2021/12/19 03:50:02;;;;;;;14.52;2.45;;;;;;;6.34;94.94;101677.16;4812237;29;20371;-77
2021/12/19 03:52:28;;;;;;;13.55;2.30;;;;;;;6.49;95.13;101688.16;4824930;29;20045;-77
2021/12/19 03:54:53;;;;;;;15.80;2.53;;;;;;;6.45;94.85;101679.63;4804821;29;20034;-77
2021/12/19 03:57:18;;;;;;;17.48;2.55;;;;;;;6.27;95.53;101682.25;4825179;29;20031;-77
2021/12/19 03:59:47;;;;;;;23.08;3.28;;;;;;;6.22;95.70;101676.50;4822382;29;20030;-77
2021/12/19 04:02:13;;;;;;;28.23;3.85;;;;;;;6.07;95.75;101678.03;4822240;29;20050;-77
2021/12/19 04:04:39;;;;;;;19.52;2.60;;;;;;;5.96;96.66;101678.19;4807087;29;20461;-77
2021/12/19 04:07:04;;;;;;;23.63;2.20;;;;;;;5.85;97.44;101679.19;4808229;29;20049;-77
2021/12/19 04:09:30;;;;;;;14.27;1.67;;;;;;;5.89;97.69;101686.78;4823477;29;20038;-76
2021/12/19 04:11:56;;;;;;;21.23;2.88;;;;;;;5.97;97.65;101678.06;4824236;29;20050;-77
2021/12/19 04:14:22;;;;;;;18.13;2.20;;;;;;;5.83;97.84;101651.81;4822862;29;20042;-76
2021/12/19 04:16:47;;;;;;;17.35;2.08;;;;;;;6.01;98.06;101674.09;4810384;29;20468;-77
2021/12/19 04:19:13;;;;;;;19.38;2.50;;;;;;;5.97;98.30;101688.75;4824140;29;20045;-76
2021/12/19 04:21:38;;;;;;;42.40;3.70;;;;;;;5.91;98.92;101689.31;4822565;29;20034;-77
2021/12/19 04:24:05;;;;;;;18.35;2.80;;;;;;;5.83;99.50;101668.69;4824045;29;20029;-77
2021/12/19 04:26:30;;;;;;;19.73;3.05;;;;;;;5.91;99.34;101681.28;4810430;29;20060;-77
2021/12/19 04:28:56;;;;;;;26.85;3.90;;;;;;;6.03;99.47;101679.31;4812431;29;20037;-77
2021/12/19 04:31:22;;;;;;;20.23;2.65;;;;;;;6.07;99.62;101689.53;4828622;29;20047;-76
2021/12/19 04:33:48;;;;;;;20.27;2.80;;;;;;;6.08;99.96;101679.69;4811471;29;20117;-77
2021/12/19 04:36:22;;;;;;;24.60;3.10;;;;;;;5.91;100.00;101649.22;4825497;29;20518;-77
2021/12/19 04:55:19;;;;;;;24.00;3.47;;;;;;;5.69;100.00;101676.31;4826129;29;20042;-77
2021/12/19 04:57:51;;;;;;;23.00;3.22;;;;;;;5.80;100.00;101689.50;4827095;29;20422;-77
2021/12/19 05:00:21;;;;;;;27.15;3.38;;;;;;;5.84;100.00;101691.72;4794835;29;20369;-76
2021/12/19 05:02:54;;;;;;;21.15;2.90;;;;;;;5.35;100.00;101588.75;4812072;29;20051;-77
2021/12/19 05:05:51;;;;;;;20.33;2.70;;;;;;;6.14;100.00;101686.28;4803456;29;20057;-77
2021/12/19 05:16:26;;;;;;;14.77;2.60;;;;;;;6.23;100.00;101675.53;4811765;29;20109;-77
2021/12/19 05:18:54;;;;;;;19.02;2.42;;;;;;;6.27;100.00;101676.91;4810840;29;20054;-76
2021/12/19 05:21:25;;;;;;;23.25;2.47;;;;;;;6.26;100.00;101688.63;4810340;29;20365;-76
2021/12/19 05:26:25;;;;;;;17.40;2.50;;;;;;;6.19;100.00;101675.97;4811682;29;20534;-76
2021/12/19 05:28:52;;;;;;;14.05;2.13;;;;;;;6.24;100.00;101677.22;4809186;29;20050;-77
2021/12/19 05:31:20;;;;;;;26.67;2.80;;;;;;;6.24;100.00;101681.72;4795470;29;20060;-76
2021/12/19 05:33:46;;;;;;;23.70;2.97;;;;;;;6.09;100.00;101670.69;4824667;29;20038;-76
2021/12/19 05:46:58;;;;;;;25.10;3.97;;;;;;;6.02;100.00;101683.78;4811832;29;20110;-76
2021/12/19 05:49:23;;;;;;;22.20;2.85;;;;;;;5.84;100.00;101686.38;4824937;29;20098;-76
2021/12/19 05:51:49;;;;;;;28.65;3.05;;;;;;;5.92;100.00;101685.63;4824426;29;20039;-77
2021/12/19 05:54:14;;;;;;;23.15;2.92;;;;;;;5.87;100.00;101682.56;4808993;29;20405;-77
2021/12/19 05:56:41;;;;;;;27.70;3.22;;;;;;;5.90;100.00;101687.63;4809407;29;20118;-77
2021/12/19 05:59:08;;;;;;;20.08;3.05;;;;;;;5.92;100.00;101682.97;4824422;29;20030;-77
2021/12/19 06:01:34;;;;;;;23.42;2.75;;;;;;;5.83;100.00;101689.22;4799548;29;20037;-77
2021/12/19 06:03:59;;;;;;;18.08;2.58;;;;;;;5.75;100.00;101687.25;4808506;29;20058;-76
2021/12/19 06:06:26;;;;;;;28.20;3.70;;;;;;;5.58;100.00;101680.00;4808931;29;20062;-77
2021/12/19 06:08:52;;;;;;;18.65;2.47;;;;;;;5.62;100.00;101686.72;4809855;29;20478;-77
2021/12/19 06:11:18;;;;;;;24.65;2.72;;;;;;;5.58;100.00;101682.66;4808525;29;20125;-77
2021/12/19 06:13:43;;;;;;;22.98;2.30;;;;;;;5.70;100.00;101691.38;4826599;29;20164;-77
2021/12/19 06:16:09;;;;;;;21.30;2.83;;;;;;;5.68;100.00;101694.16;4809921;29;20049;-77
2021/12/19 06:18:35;;;;;;;22.45;2.97;;;;;;;5.75;100.00;101694.41;4826440;29;20062;-77
2021/12/19 06:21:03;;;;;;;17.48;2.63;;;;;;;5.61;100.00;101653.00;4821176;29;20026;-77
2021/12/19 06:23:30;;;;;;;19.25;2.72;;;;;;;5.75;100.00;101689.91;4823710;29;20060;-77
2021/12/19 06:25:55;;;;;;;20.30;2.60;;;;;;;5.75;100.00;101689.91;4824574;29;20038;-77
2021/12/19 06:28:21;;;;;;;20.52;2.65;;;;;;;5.64;100.00;101688.28;4809050;29;20381;-77
2021/12/19 06:30:47;;;;;;;24.38;3.15;;;;;;;5.58;100.00;101699.53;4823858;29;20057;-77
2021/12/19 06:33:13;;;;;;;19.10;3.20;;;;;;;5.85;100.00;101727.28;4809684;29;20163;-77
2021/12/19 06:35:39;;;;;;;18.00;2.08;;;;;;;5.88;100.00;101724.31;4824327;29;20406;-77
2021/12/19 06:38:06;;;;;;;18.55;2.25;;;;;;;5.92;100.00;101728.38;4810382;29;20109;-76
2021/12/19 06:40:32;;;;;;;19.98;2.60;;;;;;;5.88;100.00;101716.31;4825332;29;20049;-77
2021/12/19 06:42:58;;;;;;;17.17;1.92;;;;;;;5.93;100.00;101718.56;4826164;29;20034;-77
2021/12/19 06:45:23;;;;;;;19.55;2.78;;;;;;;5.90;100.00;101698.31;4818960;29;20040;-76
2021/12/19 06:47:49;;;;;;;18.20;2.50;;;;;;;5.95;100.00;101716.59;4825120;29;20057;-77
2021/12/19 06:50:16;;;;;;;16.38;2.00;;;;;;;5.85;100.00;101724.59;4812929;29;20377;-76
2021/12/19 06:52:43;;;;;;;23.05;2.70;;;;;;;5.73;100.00;101707.94;4824952;29;20038;-76
2021/12/19 06:55:11;;;;;;;15.70;2.00;;;;;;;5.85;100.00;101721.94;4824605;29;20053;-77
2021/12/19 06:57:37;;;;;;;15.90;2.05;;;;;;;5.81;100.00;101716.03;4824538;29;20038;-77
2021/12/19 07:00:15;;;;;;;15.30;2.00;;;;;;;5.68;100.00;101720.03;4809100;29;20100;-76
2021/12/19 07:02:41;;;;;;;16.98;2.35;;;;;;;5.56;100.00;101714.88;4809285;29;20051;-76
2021/12/19 07:05:07;;;;;;;13.80;1.58;;;;;;;5.57;100.00;101713.03;4824180;29;20419;-76
2021/12/19 07:07:34;;;;;;;15.50;2.90;;;;;;;5.52;100.00;101699.25;4822857;29;20046;-76
2021/12/19 07:09:59;;;;;;;12.57;2.15;;;;;;;5.58;100.00;101710.19;4803345;29;20042;-76
2021/12/19 07:12:26;;;;;;;16.48;2.20;;;;;;;5.57;100.00;101724.56;4812493;29;20030;-77
2021/12/19 07:14:53;;;;;;;12.63;2.33;;;;;;;5.53;100.00;101728.50;4825227;29;20544;-77
2021/12/19 07:17:19;;;;;;;10.98;1.40;;;;;;;5.48;100.00;101736.06;4811270;29;20101;-76
2021/12/19 07:19:45;;;;;;;14.95;2.85;;;;;;;5.42;100.00;101739.31;4815195;29;20366;-76
2021/12/19 07:22:10;;;;;;;13.35;2.40;;;;;;;5.40;100.00;101738.63;4814349;29;20040;-76
2021/12/19 07:24:37;;;;;;;16.55;2.97;;;;;;;5.12;100.00;101719.81;4817339;29;20065;-76
2021/12/19 07:27:03;;;;;;;12.88;1.95;;;;;;;5.31;99.95;101739.47;4825789;29;20046;-78
2021/12/19 07:29:28;;;;;;;10.35;1.58;;;;;;;5.20;99.06;101727.13;4808205;29;20045;-76
2021/12/19 07:31:54;;;;;;;12.15;1.90;;;;;;;5.18;99.16;101743.28;4809693;29;20042;-76
2021/12/19 07:34:19;;;;;;;12.73;1.52;;;;;;;4.98;99.35;101714.91;4821804;29;20036;-76
2021/12/19 07:36:51;;;;;;;11.60;1.30;;;;;;;5.09;99.54;101751.28;4825146;29;20041;-77
2021/12/19 07:40:19;;;;;;;9.95;1.40;;;;;;;4.95;99.56;101752.53;4822485;29;20031;-76
2021/12/19 07:42:11;;;;;;;6.28;1.23;;;;;;;4.94;99.96;101758.84;4791000;29;20039;-76
2021/12/19 07:44:38;;;;;;;12.75;1.67;;;;;;;4.90;99.34;101752.97;4806328;29;20070;-76
2021/12/19 07:47:06;;;;;;;12.10;1.50;;;;;;;4.90;99.28;101765.44;4806752;29;20453;-76
2021/12/19 07:49:32;;;;;;;12.20;1.58;;;;;;;4.86;98.90;101772.03;4823354;29;20026;-77
2021/12/19 07:51:57;;;;;;;6.82;1.40;;;;;;;4.66;99.10;101749.81;4824431;29;20571;-77
2021/12/19 07:54:23;;;;;;;8.32;1.33;;;;;;;4.43;98.70;101744.72;4823368;29;20395;-78
2021/12/19 07:56:48;;;;;;;6.82;1.20;;;;;;;4.43;98.53;101775.84;4827273;29;20563;-76
2021/12/19 07:59:14;;;;;;;6.10;1.00;;;;;;;4.43;94.17;101758.03;4810694;29;20038;-76
2021/12/19 08:01:40;;;;;;;5.25;0.70;;;;;;;4.82;92.71;101768.78;4822979;29;20613;-76
2021/12/19 08:04:05;;;;;;;4.85;0.77;;;;;;;4.93;90.18;101775.81;4808079;29;20125;-76
2021/12/19 08:06:31;;;;;;;4.43;0.57;;;;;;;4.90;88.69;101776.97;4807675;29;20061;-76
2021/12/19 08:08:58;;;;;;;2.35;0.63;;;;;;;4.98;89.17;101784.25;4792106;29;20035;-76
2021/12/19 08:11:40;;;;;;;5.50;0.70;;;;;;;4.95;85.46;101787.19;4827294;29;20035;-77
2021/12/19 08:14:14;;;;;;;3.58;0.70;;;;;;;4.93;82.08;101781.16;4812877;29;20109;-77
2021/12/19 08:16:40;;;;;;;6.05;0.73;;;;;;;5.01;80.67;101793.81;4823627;29;20464;-76
2021/12/19 08:19:07;;;;;;;1.83;0.50;;;;;;;5.02;79.50;101780.31;4822712;29;20121;-76
2021/12/19 08:21:33;;;;;;;3.78;0.40;;;;;;;5.00;79.47;101779.66;4823971;29;20030;-77
2021/12/19 08:24:01;;;;;;;1.70;0.55;;;;;;;4.97;78.08;101781.72;4806918;29;20041;-77
2021/12/19 08:26:28;;;;;;;2.00;0.45;;;;;;;4.82;77.40;101751.97;4827672;29;20045;-76
2021/12/19 08:28:53;;;;;;;2.40;0.30;;;;;;;4.98;74.68;101786.94;4824087;29;20035;-77
2021/12/19 08:31:19;;;;;;;2.08;0.30;;;;;;;5.05;74.75;101792.56;4830636;29;20061;-77
2021/12/19 08:33:45;;;;;;;1.58;0.40;;;;;;;4.97;74.36;101779.91;4807523;29;20087;-76
2021/12/19 08:36:10;;;;;;;2.25;0.40;;;;;;;5.06;74.05;101807.56;4807325;29;20042;-76
2021/12/19 08:38:36;;;;;;;1.13;0.60;;;;;;;5.05;73.61;101788.06;4822678;29;20125;-76
2021/12/19 08:41:02;;;;;;;3.55;0.98;;;;;;;5.04;73.14;101790.88;4823332;29;20027;-77
2021/12/19 08:43:28;;;;;;;2.97;1.02;;;;;;;4.98;73.45;101788.75;4824378;29;20465;-77
2021/12/19 08:45:53;;;;;;;3.05;1.63;;;;;;;5.04;73.00;101801.53;4823034;29;20113;-76
2021/12/19 08:48:19;;;;;;;2.42;1.02;;;;;;;4.96;70.82;101783.53;4807424;29;20038;-77
2021/12/19 08:50:45;;;;;;;2.83;1.00;;;;;;;5.05;71.38;101805.88;4822443;29;20365;-76
2021/12/19 08:53:11;;;;;;;1.00;0.52;;;;;;;5.03;70.32;101816.69;4807707;29;20026;-75
2021/12/19 08:55:37;;;;;;;1.02;0.40;;;;;;;4.92;69.83;101795.47;4821982;29;20038;-75
2021/12/19 08:58:02;;;;;;;1.50;0.50;;;;;;;5.04;70.35;101817.56;4823914;29;20035;-76
2021/12/19 09:00:28;;;;;;;0.93;0.40;;;;;;;4.99;69.56;101812.63;4812074;29;20061;-76
2021/12/19 09:02:55;;;;;;;0.95;0.30;;;;;;;4.91;68.97;101781.31;4823724;29;20050;-76
2021/12/19 09:05:22;;;;;;;1.10;0.20;;;;;;;4.98;71.10;101810.09;4820906;29;20501;-76
2021/12/19 09:07:50;;;;;;;0.90;0.28;;;;;;;4.97;68.52;101801.25;4804491;29;20038;-76
2021/12/19 09:10:15;;;;;;;1.27;0.20;;;;;;;4.97;68.65;101827.06;4811720;29;20034;-76
2021/12/19 09:12:40;;;;;;;1.38;0.20;;;;;;;4.78;68.52;101801.22;4811719;29;20045;-77
2021/12/19 09:15:06;;;;;;;0.40;0.17;;;;;;;4.93;68.71;101827.38;4817092;29;20030;-77
2021/12/19 09:17:32;;;;;;;1.00;0.20;;;;;;;4.97;67.88;101853.72;4834579;29;20121;-77
2021/12/19 09:19:57;;;;;;;1.73;0.30;;;;;;;4.92;68.84;101854.16;4833127;29;20042;-77
2021/12/19 09:22:23;;;;;;;1.48;0.30;;;;;;;4.97;67.50;101867.94;4794982;29;20098;-77
2021/12/19 09:24:49;;;;;;;0.90;0.20;;;;;;;5.07;66.14;101871.47;4826608;29;20035;-77
2021/12/19 09:27:15;;;;;;;0.65;0.30;;;;;;;5.01;65.16;101881.84;4809113;29;20045;-77
2021/12/19 09:29:41;;;;;;;0.30;0.10;;;;;;;5.07;66.38;101887.47;4811992;29;20042;-77
2021/12/19 09:32:06;;;;;;;1.92;0.22;;;;;;;5.03;66.60;101887.88;4810488;29;20031;-77
2021/12/19 09:34:32;;;;;;;0.45;0.30;;;;;;;4.95;67.07;101893.88;4822599;29;20424;-77
2021/12/19 09:36:58;;;;;;;0.55;0.20;;;;;;;4.75;65.31;101860.97;4810713;29;20453;-77
2021/12/19 09:39:24;;;;;;;1.40;0.10;;;;;;;5.00;64.77;101891.69;4825288;29;20052;-77
2021/12/19 09:41:59;;;;;;;1.15;0.20;;;;;;;4.57;63.45;101803.94;4826351;29;20030;-77
2021/12/19 09:44:25;;;;;;;0.68;0.30;;;;;;;5.08;64.26;101880.31;4826312;29;20070;-77
2021/12/19 09:46:51;;;;;;;1.08;0.28;;;;;;;5.15;66.02;101892.97;4825528;29;20128;-77
2021/12/19 09:49:19;;;;;;;0.30;0.20;;;;;;;5.22;65.87;101892.41;4824166;29;20038;-78
2021/12/19 09:51:46;;;;;;;0.35;0.10;;;;;;;5.18;65.49;101887.34;4826760;29;20054;-78
2021/12/19 09:54:12;;;;;;;0.45;0.20;;;;;;;5.11;65.55;101896.88;4804520;29;20053;-78
2021/12/19 09:56:39;;;;;;;1.42;0.22;;;;;;;5.12;65.65;101887.06;4808570;29;20214;-77
2021/12/19 09:59:10;;;;;;;0.40;0.20;;;;;;;5.13;63.89;101902.94;4822150;29;20062;-78
2021/12/19 10:01:37;;;;;;;0.88;0.30;;;;;;;5.10;60.57;101892.53;4823588;29;20042;-79
2021/12/19 10:04:03;;;;;;;0.82;0.30;;;;;;;4.87;60.89;101861.75;4825557;29;20142;-78
2021/12/19 10:06:30;;;;;;;0.43;0.20;;;;;;;5.17;61.09;101912.34;4825309;29;20520;-78
2021/12/19 10:09:13;;;;;;;0.70;0.20;;;;;;;5.05;60.29;101921.44;4825930;29;20466;-78
2021/12/19 10:14:35;;;;;;;0.20;0.10;;;;;;;4.77;60.50;101866.16;4795205;29;20042;-79
2021/12/19 10:17:06;;;;;;;0.65;0.20;;;;;;;5.09;60.13;101917.50;4826686;29;20129;-78
2021/12/19 10:19:49;;;;;;;0.75;0.10;;;;;;;5.02;58.73;101915.53;4809212;29;20042;-77
2021/12/19 10:22:27;;;;;;;1.80;0.25;;;;;;;5.30;57.61;101920.13;4825010;29;20347;-78
2021/12/19 10:24:54;;;;;;;0.28;0.20;;;;;;;5.35;59.12;101925.03;4828609;29;20061;-77
2021/12/19 10:27:38;;;;;;;0.55;0.17;;;;;;;5.17;56.39;101923.03;4799248;29;20133;-78
2021/12/19 10:30:09;;;;;;;0.52;0.10;;;;;;;5.23;55.87;101928.78;4804585;29;20102;-78
2021/12/19 10:32:35;;;;;;;0.38;0.30;;;;;;;5.43;54.60;101943.88;4791472;29;20134;-78
2021/12/19 10:35:28;;;;;;;0.52;0.15;;;;;;;5.49;55.07;101940.63;4826047;29;20034;-77
2021/12/19 10:37:54;;;;;;;0.30;0.10;;;;;;;5.37;55.65;101925.75;4824090;29;20094;-78
2021/12/19 10:40:20;;;;;;;0.65;0.10;;;;;;;5.50;55.69;101945.00;4826513;29;20057;-78
2021/12/19 10:42:56;;;;;;;0.45;0.10;;;;;;;5.18;54.29;101884.69;4825486;29;20109;-79
2021/12/19 10:45:32;;;;;;;1.05;0.20;;;;;;;5.60;55.01;101931.69;4821659;29;20030;-78
2021/12/19 10:48:16;;;;;;;0.40;0.20;;;;;;;5.72;53.06;101893.16;4824913;29;20873;-78
2021/12/19 10:50:43;;;;;;;1.27;0.20;;;;;;;5.78;52.57;101940.66;4823554;29;20563;-78
2021/12/19 10:53:09;;;;;;;1.23;0.20;;;;;;;5.72;51.89;101940.38;4824533;29;20061;-77
2021/12/19 10:55:35;;;;;;;0.55;0.17;;;;;;;5.72;53.31;101930.53;4808383;29;20069;-78
2021/12/19 10:58:01;;;;;;;1.05;0.30;;;;;;;5.64;52.29;101906.38;4809895;29;20058;-78
2021/12/19 11:00:28;;;;;;;0.70;0.20;;;;;;;5.66;53.62;101931.09;4825678;29;20146;-78
2021/12/19 11:02:54;;;;;;;1.33;0.30;;;;;;;5.62;53.73;101945.72;4825885;29;20137;-78
2021/12/19 11:05:40;;;;;;;1.27;0.40;;;;;;;5.51;53.19;101943.19;4809261;29;20133;-78
2021/12/19 11:08:08;;;;;;;0.52;0.30;;;;;;;5.58;53.16;101966.50;4825310;29;20030;-77
2021/12/19 11:10:35;;;;;;;0.65;0.20;;;;;;;5.59;53.88;101973.53;4823935;29;20509;-78
2021/12/19 11:13:12;;;;;;;1.17;0.28;;;;;;;5.51;54.55;101944.03;4824515;29;20061;-78
2021/12/19 11:15:38;;;;;;;0.60;0.20;;;;;;;5.47;51.88;101977.31;4825117;29;20040;-77
2021/12/19 11:18:05;;;;;;;0.60;0.30;;;;;;;5.54;52.95;101962.44;4824140;29;20030;-77
2021/12/19 11:20:31;;;;;;;0.80;0.20;;;;;;;5.55;54.02;101969.47;4792951;29;20090;-78
2021/12/19 11:22:57;;;;;;;0.50;0.20;;;;;;;5.40;53.17;101979.69;4807158;29;20034;-78
2021/12/19 11:25:23;;;;;;;0.65;0.10;;;;;;;5.46;53.62;101972.94;4823799;29;20113;-78
2021/12/19 11:27:49;;;;;;;1.27;0.30;;;;;;;5.19;54.85;101931.72;4809057;29;20038;-78
2021/12/19 11:30:15;;;;;;;0.90;0.20;;;;;;;5.35;52.88;101946.38;4823494;29;20125;-77
2021/12/19 11:33:05;;;;;;;0.82;0.22;;;;;;;5.31;55.25;101963.66;4790548;29;20401;-78
2021/12/19 11:35:33;;;;;;;0.90;0.30;;;;;;;5.29;55.39;101986.94;4822701;29;20034;-78
2021/12/19 11:38:01;;;;;;;1.60;0.40;;;;;;;5.30;55.29;101959.31;4809155;29;20484;-78
2021/12/19 11:40:32;;;;;;;1.13;0.32;;;;;;;5.19;56.15;101961.06;4807825;29;20026;-78
2021/12/19 11:43:15;;;;;;;0.82;0.20;;;;;;;5.07;57.36;101956.00;4809504;29;20369;-78
2021/12/19 11:45:54;;;;;;;0.70;0.20;;;;;;;5.14;56.04;101952.66;4823441;29;20030;-79
2021/12/19 11:50:58;;;;;;;2.13;0.20;;;;;;;4.95;57.55;101947.25;4824075;29;20038;-77
2021/12/19 11:53:26;;;;;;;0.30;0.20;;;;;;;5.03;57.75;101976.72;4822995;29;20030;-77
2021/12/19 11:55:56;;;;;;;0.32;0.13;;;;;;;5.08;55.11;101984.34;4807706;29;20110;-78
2021/12/19 11:58:45;;;;;;;0.77;0.22;;;;;;;5.23;54.42;101969.69;4804527;29;20105;-78
2021/12/19 12:01:23;;;;;;;0.82;0.60;;;;;;;5.02;54.09;101983.06;4823872;29;20034;-77
2021/12/19 12:03:54;;;;;;;0.80;0.30;;;;;;;5.27;54.75;101981.75;4822382;29;20099;-78
2021/12/19 12:06:21;;;;;;;0.68;0.30;;;;;;;5.25;54.59;101996.22;4821716;29;20023;-79
2021/12/19 12:09:07;;;;;;;0.70;0.20;;;;;;;5.26;53.46;101980.06;4824177;29;20042;-77
2021/12/19 12:11:34;;;;;;;0.57;0.20;;;;;;;5.31;53.40;101963.66;4821782;29;20097;-77
2021/12/19 12:14:22;;;;;;;1.20;0.38;;;;;;;5.24;54.30;101983.88;4826320;29;20049;-77
2021/12/19 12:16:58;;;;;;;1.88;0.13;;;;;;;5.22;53.32;101981.31;4807711;29;20027;-78
2021/12/19 12:19:36;;;;;;;0.88;0.20;;;;;;;5.18;53.75;101982.56;4822771;29;20493;-77
2021/12/19 12:25:07;;;;;;;;;;;;;;;5.21;53.22;101976.97;4822982;29;20043;-77
2021/12/19 12:27:51;;;;;;;1.20;0.30;;;;;;;5.19;52.82;101984.25;4798732;29;20321;-77
2021/12/19 12:30:46;;;;;;;1.52;0.30;;;;;;;5.08;53.41;101960.34;4806544;29;20115;-77
2021/12/19 12:33:14;;;;;;;0.90;0.30;;;;;;;5.16;51.82;101976.50;4823667;29;20445;-77
2021/12/19 12:35:41;;;;;;;0.98;0.20;;;;;;;5.32;52.46;101971.50;4820091;29;20079;-78
2021/12/19 12:38:09;;;;;;;1.60;0.30;;;;;;;5.19;53.44;101974.41;4807453;29;20521;-78
2021/12/19 12:41:25;;;;;;;1.52;0.20;;;;;;;5.12;53.99;101983.94;4822375;29;20035;-77
2021/12/19 12:43:34;;;;;;;0.98;0.20;;;;;;;5.12;55.16;101975.94;4801932;29;20047;-77
2021/12/19 12:46:06;;;;;;;0.75;0.10;;;;;;;4.94;54.17;101967.72;4804882;29;20038;-77
2021/12/19 12:48:50;;;;;;;0.70;0.22;;;;;;;5.03;54.01;101947.41;4808731;29;20458;-77